Beech Mountain, North Carolina
Current Conditions -  °F | °C
As of 4:35 PM on Wednesday 17 Dec 2014 (Local Time) from KTNB Reporting Station
Clear Clear  
Wind Chill: 37°   Ceiling: Unl
Heat Index: 40°   Visibility: 10mi
Dew Point: 27°   Wind: 5mph
Humidity: 59%   Direction: 320°NW
Pressure: 30.06"   Gusts: NA
Location:  36.1797°N, 81.8424°W
Report Text: KTNB 172135Z AUTO 32004KT 10SM CLR 04/M03 A3006 RMK AO2 T00441030
Loading
Personal Weather Stations






























Interactive Weather Map New forecast layout! Learn more

10-Day Weather Forecast

Advertisements
Track Severe Weather on mobile